Creek Data

    Home     View Charts     View Raw Data     Messages

ID Distance Battery Voltage Battery Current Internal Temp Internal Humidity External Temp Solar Input rssi snr Time Stamp Record
64126 14.8 3.70 -5 53 55 52 2.2 -74 8 01/22/2026 05:30 PM 46880
64125 14.8 3.82 -5 56 55 53 4.5 -74 8 01/22/2026 05:15 PM 46879
64124 14.8 3.97 9 60 53 56 4.5 -74 8 01/22/2026 05:00 PM 46878
64123 14.8 4.08 0 64 51 58 5.1 -74 8 01/22/2026 04:45 PM 46877
64122 14.8 3.80 0 64 52 59 5.1 -74 8 01/22/2026 04:30 PM 46876
64121 14.7 3.96 0 67 50 60 5.1 -74 8 01/22/2026 04:15 PM 46875
64120 14.8 3.81 0 68 49 60 5.1 -74 7 01/22/2026 04:00 PM 46874
64119 14.8 3.81 0 69 48 60 5.1 -73 7 01/22/2026 03:45 PM 46873
64118 14.9 3.81 0 69 48 59 5.1 -74 8 01/22/2026 03:30 PM 46872
64117 14.9 3.81 0 66 51 59 5.1 -73 8 01/22/2026 03:15 PM 46871
64116 14.9 3.81 0 68 50 59 5.1 -75 8 01/22/2026 03:00 PM 46870
64115 14.9 3.81 0 75 44 59 5.1 -73 8 01/22/2026 02:30 PM 46868
64114 14.9 3.83 0 74 43 59 5.1 -72 9 01/22/2026 02:15 PM 46867
64113 14.9 3.81 0 74 41 60 5.1 -73 8 01/22/2026 02:00 PM 46866
64112 14.9 3.81 0 73 41 60 5.1 -73 7 01/22/2026 01:45 PM 46865
64111 14.9 3.81 0 72 39 60 5.1 -73 8 01/22/2026 01:30 PM 46864
64110 14.9 3.81 0 68 41 56 5.1 -74 7 01/22/2026 01:15 PM 46863
64109 14.9 3.93 0 60 45 53 5.1 -72 8 01/22/2026 01:00 PM 46862
64108 14.8 3.93 0 58 45 53 5.1 -73 8 01/22/2026 12:45 PM 46861
64107 14.8 3.94 0 56 45 53 5.1 -73 8 01/22/2026 12:30 PM 46860
64106 14.8 3.81 0 53 46 52 5.1 -74 8 01/22/2026 12:15 PM 46859
64105 14.7 4.02 0 50 48 50 5.1 -74 8 01/22/2026 12:00 PM 46858
64104 14.7 3.87 15 48 49 47 4.5 -74 8 01/22/2026 11:45 AM 46857
64103 14.7 4.02 6 48 49 47 4.5 -75 8 01/22/2026 11:30 AM 46856
64102 14.7 3.83 0 48 48 47 5.1 -74 8 01/22/2026 11:15 AM 46855